sensor_id;sensor_type;location;lat;lon;timestamp;P1;durP1;ratioP1;P2;durP2;ratioP2
29238;SDS011;16267;48.194;11.546;2022-10-12T00:00:51;27.65;;;18.95;;
29238;SDS011;16267;48.194;11.546;2022-10-12T00:03:17;32.88;;;19.13;;
29238;SDS011;16267;48.194;11.546;2022-10-12T00:05:44;34.38;;;19.05;;
29238;SDS011;16267;48.194;11.546;2022-10-12T00:08:11;33.30;;;19.38;;
29238;SDS011;16267;48.194;11.546;2022-10-12T00:10:40;28.58;;;18.92;;
29238;SDS011;16267;48.194;11.546;2022-10-12T00:13:08;32.28;;;19.35;;
29238;SDS011;16267;48.194;11.546;2022-10-12T00:15:36;28.58;;;18.05;;
29238;SDS011;16267;48.194;11.546;2022-10-12T00:18:05;28.05;;;17.95;;
29238;SDS011;16267;48.194;11.546;2022-10-12T00:20:31;28.88;;;18.60;;
29238;SDS011;16267;48.194;11.546;2022-10-12T00:22:58;27.88;;;17.90;;
29238;SDS011;16267;48.194;11.546;2022-10-12T00:25:23;33.30;;;18.02;;
29238;SDS011;16267;48.194;11.546;2022-10-12T00:27:49;30.67;;;17.95;;
29238;SDS011;16267;48.194;11.546;2022-10-12T00:30:15;27.08;;;18.55;;
29238;SDS011;16267;48.194;11.546;2022-10-12T00:32:41;27.85;;;17.95;;
29238;SDS011;16267;48.194;11.546;2022-10-12T00:35:07;29.83;;;17.92;;
29238;SDS011;16267;48.194;11.546;2022-10-12T00:37:33;28.27;;;19.92;;
29238;SDS011;16267;48.194;11.546;2022-10-12T00:39:59;30.85;;;18.95;;
29238;SDS011;16267;48.194;11.546;2022-10-12T00:42:24;30.58;;;18.35;;
29238;SDS011;16267;48.194;11.546;2022-10-12T00:44:50;30.85;;;18.98;;
29238;SDS011;16267;48.194;11.546;2022-10-12T00:50:02;27.30;;;17.65;;
29238;SDS011;16267;48.194;11.546;2022-10-12T00:52:39;32.25;;;18.65;;
29238;SDS011;16267;48.194;11.546;2022-10-12T00:55:14;35.97;;;18.85;;
29238;SDS011;16267;48.194;11.546;2022-10-12T00:57:43;26.40;;;17.88;;
29238;SDS011;16267;48.194;11.546;2022-10-12T04:01:24;60.40;;;27.60;;
29238;SDS011;16267;48.194;11.546;2022-10-12T04:03:50;57.65;;;29.13;;
29238;SDS011;16267;48.194;11.546;2022-10-12T04:06:15;56.83;;;28.75;;
29238;SDS011;16267;48.194;11.546;2022-10-12T04:08:41;58.05;;;30.55;;
29238;SDS011;16267;48.194;11.546;2022-10-12T04:11:07;59.33;;;29.95;;
29238;SDS011;16267;48.194;11.546;2022-10-12T04:13:34;64.53;;;31.52;;
29238;SDS011;16267;48.194;11.546;2022-10-12T04:16:03;67.95;;;31.48;;
29238;SDS011;16267;48.194;11.546;2022-10-12T04:18:30;58.85;;;30.40;;
29238;SDS011;16267;48.194;11.546;2022-10-12T04:20:57;72.30;;;32.65;;
29238;SDS011;16267;48.194;11.546;2022-10-12T04:23:25;67.85;;;31.98;;
29238;SDS011;16267;48.194;11.546;2022-10-12T04:25:50;69.40;;;31.25;;
29238;SDS011;16267;48.194;11.546;2022-10-12T04:28:16;69.82;;;32.10;;
29238;SDS011;16267;48.194;11.546;2022-10-12T04:30:43;61.08;;;30.75;;
29238;SDS011;16267;48.194;11.546;2022-10-12T04:33:10;68.75;;;32.08;;
29238;SDS011;16267;48.194;11.546;2022-10-12T04:35:36;72.78;;;30.00;;
29238;SDS011;16267;48.194;11.546;2022-10-12T04:38:02;75.03;;;32.35;;
29238;SDS011;16267;48.194;11.546;2022-10-12T04:40:28;70.40;;;31.77;;
29238;SDS011;16267;48.194;11.546;2022-10-12T04:42:54;67.22;;;33.17;;
29238;SDS011;16267;48.194;11.546;2022-10-12T04:45:20;64.55;;;32.00;;
29238;SDS011;16267;48.194;11.546;2022-10-12T04:47:46;70.20;;;33.15;;
29238;SDS011;16267;48.194;11.546;2022-10-12T04:50:12;70.25;;;33.75;;
29238;SDS011;16267;48.194;11.546;2022-10-12T04:52:38;64.88;;;32.38;;
29238;SDS011;16267;48.194;11.546;2022-10-12T04:55:04;62.47;;;32.08;;
29238;SDS011;16267;48.194;11.546;2022-10-12T04:57:31;58.55;;;31.02;;
29238;SDS011;16267;48.194;11.546;2022-10-12T04:59:57;70.78;;;33.65;;
29238;SDS011;16267;48.194;11.546;2022-10-12T05:02:22;69.35;;;34.63;;
29238;SDS011;16267;48.194;11.546;2022-10-12T05:04:48;64.78;;;31.45;;
29238;SDS011;16267;48.194;11.546;2022-10-12T05:07:14;65.93;;;30.70;;
29238;SDS011;16267;48.194;11.546;2022-10-12T05:09:40;60.85;;;31.67;;
29238;SDS011;16267;48.194;11.546;2022-10-12T05:12:05;69.40;;;32.35;;
29238;SDS011;16267;48.194;11.546;2022-10-12T05:14:31;63.45;;;31.30;;
29238;SDS011;16267;48.194;11.546;2022-10-12T05:16:57;68.15;;;33.88;;
29238;SDS011;16267;48.194;11.546;2022-10-12T05:19:23;65.53;;;31.05;;
29238;SDS011;16267;48.194;11.546;2022-10-12T05:21:48;67.55;;;33.38;;
29238;SDS011;16267;48.194;11.546;2022-10-12T05:24:14;63.00;;;30.50;;
29238;SDS011;16267;48.194;11.546;2022-10-12T05:26:40;66.22;;;32.25;;
29238;SDS011;16267;48.194;11.546;2022-10-12T05:29:06;70.28;;;33.15;;
29238;SDS011;16267;48.194;11.546;2022-10-12T05:31:31;74.28;;;35.15;;
29238;SDS011;16267;48.194;11.546;2022-10-12T05:33:57;86.78;;;47.47;;
29238;SDS011;16267;48.194;11.546;2022-10-12T05:36:23;86.93;;;41.88;;
29238;SDS011;16267;48.194;11.546;2022-10-12T05:38:48;71.43;;;38.38;;
29238;SDS011;16267;48.194;11.546;2022-10-12T05:41:14;63.15;;;34.38;;
29238;SDS011;16267;48.194;11.546;2022-10-12T05:43:40;70.43;;;32.50;;
29238;SDS011;16267;48.194;11.546;2022-10-12T05:46:05;70.43;;;32.50;;
29238;SDS011;16267;48.194;11.546;2022-10-12T05:48:31;69.22;;;32.90;;
29238;SDS011;16267;48.194;11.546;2022-10-12T05:50:57;61.58;;;31.15;;
29238;SDS011;16267;48.194;11.546;2022-10-12T05:53:23;63.78;;;33.10;;
29238;SDS011;16267;48.194;11.546;2022-10-12T05:55:59;66.72;;;33.65;;
29238;SDS011;16267;48.194;11.546;2022-10-12T05:58:26;74.43;;;33.25;;
29238;SDS011;16267;48.194;11.546;2022-10-12T06:00:53;69.57;;;33.47;;
29238;SDS011;16267;48.194;11.546;2022-10-12T06:03:27;71.45;;;32.53;;
29238;SDS011;16267;48.194;11.546;2022-10-12T06:05:53;65.45;;;32.47;;
29238;SDS011;16267;48.194;11.546;2022-10-12T06:08:18;70.18;;;32.75;;
29238;SDS011;16267;48.194;11.546;2022-10-12T06:10:45;72.40;;;33.60;;
29238;SDS011;16267;48.194;11.546;2022-10-12T06:13:13;65.80;;;31.73;;
29238;SDS011;16267;48.194;11.546;2022-10-12T06:15:43;69.28;;;34.20;;
29238;SDS011;16267;48.194;11.546;2022-10-12T06:18:12;61.30;;;32.88;;
29238;SDS011;16267;48.194;11.546;2022-10-12T06:20:40;61.58;;;32.60;;
29238;SDS011;16267;48.194;11.546;2022-10-12T06:23:09;63.15;;;33.33;;
29238;SDS011;16267;48.194;11.546;2022-10-12T06:25:35;68.43;;;34.63;;
29238;SDS011;16267;48.194;11.546;2022-10-12T06:28:00;70.53;;;34.40;;
29238;SDS011;16267;48.194;11.546;2022-10-12T06:30:26;62.92;;;32.83;;
29238;SDS011;16267;48.194;11.546;2022-10-12T06:32:52;62.53;;;33.78;;
29238;SDS011;16267;48.194;11.546;2022-10-12T06:35:17;55.15;;;30.00;;
29238;SDS011;16267;48.194;11.546;2022-10-12T06:37:49;56.70;;;30.98;;
29238;SDS011;16267;48.194;11.546;2022-10-12T06:40:19;60.83;;;32.47;;
29238;SDS011;16267;48.194;11.546;2022-10-12T06:42:44;68.72;;;33.40;;
29238;SDS011;16267;48.194;11.546;2022-10-12T06:45:10;65.05;;;33.28;;
29238;SDS011;16267;48.194;11.546;2022-10-12T06:47:36;67.82;;;33.08;;
29238;SDS011;16267;48.194;11.546;2022-10-12T06:50:02;67.63;;;35.05;;
29238;SDS011;16267;48.194;11.546;2022-10-12T06:52:28;62.97;;;33.08;;
29238;SDS011;16267;48.194;11.546;2022-10-12T06:54:55;69.45;;;32.97;;
29238;SDS011;16267;48.194;11.546;2022-10-12T06:57:21;56.17;;;32.75;;
29238;SDS011;16267;48.194;11.546;2022-10-12T06:59:47;56.05;;;30.58;;
29238;SDS011;16267;48.194;11.546;2022-10-12T07:02:12;56.47;;;32.15;;
29238;SDS011;16267;48.194;11.546;2022-10-12T07:04:38;60.63;;;31.70;;
29238;SDS011;16267;48.194;11.546;2022-10-12T07:07:04;60.05;;;32.30;;
29238;SDS011;16267;48.194;11.546;2022-10-12T07:09:29;61.63;;;34.30;;
29238;SDS011;16267;48.194;11.546;2022-10-12T07:11:55;62.95;;;33.55;;
29238;SDS011;16267;48.194;11.546;2022-10-12T07:14:21;59.00;;;32.17;;
29238;SDS011;16267;48.194;11.546;2022-10-12T07:16:49;63.08;;;33.15;;
29238;SDS011;16267;48.194;11.546;2022-10-12T07:19:15;61.88;;;32.85;;
29238;SDS011;16267;48.194;11.546;2022-10-12T07:21:41;50.40;;;31.42;;
29238;SDS011;16267;48.194;11.546;2022-10-12T07:24:10;58.10;;;31.20;;
29238;SDS011;16267;48.194;11.546;2022-10-12T07:26:36;52.67;;;31.20;;
29238;SDS011;16267;48.194;11.546;2022-10-12T07:29:02;61.65;;;32.88;;
29238;SDS011;16267;48.194;11.546;2022-10-12T07:31:28;57.95;;;32.67;;
29238;SDS011;16267;48.194;11.546;2022-10-12T07:33:54;55.22;;;32.53;;
29238;SDS011;16267;48.194;11.546;2022-10-12T07:36:20;53.10;;;32.60;;
29238;SDS011;16267;48.194;11.546;2022-10-12T07:38:45;53.20;;;30.17;;
29238;SDS011;16267;48.194;11.546;2022-10-12T07:41:13;62.15;;;33.15;;
29238;SDS011;16267;48.194;11.546;2022-10-12T07:43:39;53.90;;;30.80;;
29238;SDS011;16267;48.194;11.546;2022-10-12T07:46:05;67.43;;;34.70;;
29238;SDS011;16267;48.194;11.546;2022-10-12T07:48:32;59.33;;;32.42;;
29238;SDS011;16267;48.194;11.546;2022-10-12T07:51:16;64.38;;;34.10;;
29238;SDS011;16267;48.194;11.546;2022-10-12T07:53:43;63.90;;;35.08;;
29238;SDS011;16267;48.194;11.546;2022-10-12T07:56:09;65.53;;;34.58;;
29238;SDS011;16267;48.194;11.546;2022-10-12T07:58:39;59.90;;;32.50;;
29238;SDS011;16267;48.194;11.546;2022-10-12T08:01:13;59.05;;;31.77;;
29238;SDS011;16267;48.194;11.546;2022-10-12T08:03:39;55.22;;;32.42;;
29238;SDS011;16267;48.194;11.546;2022-10-12T08:06:12;59.80;;;31.08;;
29238;SDS011;16267;48.194;11.546;2022-10-12T08:08:42;53.83;;;31.63;;
29238;SDS011;16267;48.194;11.546;2022-10-12T08:11:09;53.20;;;29.48;;
29238;SDS011;16267;48.194;11.546;2022-10-12T08:13:36;60.00;;;31.95;;
29238;SDS011;16267;48.194;11.546;2022-10-12T08:16:02;57.15;;;32.22;;
29238;SDS011;16267;48.194;11.546;2022-10-12T08:18:31;58.53;;;30.13;;
29238;SDS011;16267;48.194;11.546;2022-10-12T08:20:57;60.42;;;32.03;;
29238;SDS011;16267;48.194;11.546;2022-10-12T08:23:24;56.05;;;31.95;;
29238;SDS011;16267;48.194;11.546;2022-10-12T08:25:50;54.78;;;30.55;;
29238;SDS011;16267;48.194;11.546;2022-10-12T08:28:17;56.65;;;30.73;;
29238;SDS011;16267;48.194;11.546;2022-10-12T08:30:43;53.17;;;29.92;;
29238;SDS011;16267;48.194;11.546;2022-10-12T08:33:09;55.67;;;30.73;;
29238;SDS011;16267;48.194;11.546;2022-10-12T08:35:39;50.95;;;27.77;;
29238;SDS011;16267;48.194;11.546;2022-10-12T08:38:06;53.28;;;28.52;;
29238;SDS011;16267;48.194;11.546;2022-10-12T08:40:36;46.88;;;28.23;;
29238;SDS011;16267;48.194;11.546;2022-10-12T08:46:05;46.45;;;27.88;;
29238;SDS011;16267;48.194;11.546;2022-10-12T08:48:41;42.50;;;25.02;;
29238;SDS011;16267;48.194;11.546;2022-10-12T08:51:13;51.15;;;29.17;;
29238;SDS011;16267;48.194;11.546;2022-10-12T08:53:51;46.50;;;26.80;;
29238;SDS011;16267;48.194;11.546;2022-10-12T08:56:31;42.85;;;25.75;;
29238;SDS011;16267;48.194;11.546;2022-10-12T08:59:01;43.00;;;24.92;;
29238;SDS011;16267;48.194;11.546;2022-10-12T09:01:28;46.38;;;27.17;;
29238;SDS011;16267;48.194;11.546;2022-10-12T09:04:25;47.72;;;27.23;;
29238;SDS011;16267;48.194;11.546;2022-10-12T09:07:14;45.80;;;27.00;;
29238;SDS011;16267;48.194;11.546;2022-10-12T09:14:52;47.28;;;26.95;;
29238;SDS011;16267;48.194;11.546;2022-10-12T09:22:42;39.75;;;23.85;;
29238;SDS011;16267;48.194;11.546;2022-10-12T09:25:18;39.20;;;24.60;;
29238;SDS011;16267;48.194;11.546;2022-10-12T09:27:48;40.47;;;23.38;;
29238;SDS011;16267;48.194;11.546;2022-10-12T09:30:15;45.22;;;23.88;;
29238;SDS011;16267;48.194;11.546;2022-10-12T09:33:04;45.17;;;23.85;;
29238;SDS011;16267;48.194;11.546;2022-10-12T09:35:34;40.80;;;22.63;;
29238;SDS011;16267;48.194;11.546;2022-10-12T09:38:01;40.90;;;24.45;;
29238;SDS011;16267;48.194;11.546;2022-10-12T09:40:28;36.05;;;23.08;;
29238;SDS011;16267;48.194;11.546;2022-10-12T09:42:57;41.13;;;23.50;;
29238;SDS011;16267;48.194;11.546;2022-10-12T09:45:25;45.88;;;24.20;;
29238;SDS011;16267;48.194;11.546;2022-10-12T09:50:52;28.00;;;16.60;;
29238;SDS011;16267;48.194;11.546;2022-10-12T09:56:23;38.65;;;23.05;;
29238;SDS011;16267;48.194;11.546;2022-10-12T09:59:18;38.50;;;22.23;;
29238;SDS011;16267;48.194;11.546;2022-10-12T10:04:35;40.08;;;23.15;;
29238;SDS011;16267;48.194;11.546;2022-10-12T10:07:13;44.83;;;22.98;;
29238;SDS011;16267;48.194;11.546;2022-10-12T10:10:30;34.03;;;21.23;;
29238;SDS011;16267;48.194;11.546;2022-10-12T10:12:50;36.28;;;21.60;;
29238;SDS011;16267;48.194;11.546;2022-10-12T10:15:27;39.75;;;22.15;;
29238;SDS011;16267;48.194;11.546;2022-10-12T10:18:00;35.03;;;22.08;;
29238;SDS011;16267;48.194;11.546;2022-10-12T10:20:56;40.33;;;22.38;;
29238;SDS011;16267;48.194;11.546;2022-10-12T10:23:25;37.00;;;21.25;;
29238;SDS011;16267;48.194;11.546;2022-10-12T10:25:54;37.03;;;20.77;;
29238;SDS011;16267;48.194;11.546;2022-10-12T10:28:45;35.10;;;20.50;;
29238;SDS011;16267;48.194;11.546;2022-10-12T10:33:48;36.03;;;21.45;;
29238;SDS011;16267;48.194;11.546;2022-10-12T10:36:37;48.63;;;20.75;;
29238;SDS011;16267;48.194;11.546;2022-10-12T10:39:25;35.25;;;20.65;;
29238;SDS011;16267;48.194;11.546;2022-10-12T10:42:09;35.53;;;20.15;;
29238;SDS011;16267;48.194;11.546;2022-10-12T10:44:44;31.15;;;18.73;;
29238;SDS011;16267;48.194;11.546;2022-10-12T10:47:21;38.25;;;20.17;;
29238;SDS011;16267;48.194;11.546;2022-10-12T10:49:48;34.40;;;19.67;;
29238;SDS011;16267;48.194;11.546;2022-10-12T10:57:53;52.72;;;25.65;;
29238;SDS011;16267;48.194;11.546;2022-10-12T11:00:36;44.20;;;21.58;;
29238;SDS011;16267;48.194;11.546;2022-10-12T11:09:10;32.13;;;19.83;;
29238;SDS011;16267;48.194;11.546;2022-10-12T11:11:38;37.38;;;20.55;;
29238;SDS011;16267;48.194;11.546;2022-10-12T11:14:11;35.65;;;19.42;;
29238;SDS011;16267;48.194;11.546;2022-10-12T11:16:49;34.28;;;20.27;;
29238;SDS011;16267;48.194;11.546;2022-10-12T11:19:28;28.42;;;19.13;;
29238;SDS011;16267;48.194;11.546;2022-10-12T11:22:26;33.83;;;19.73;;
29238;SDS011;16267;48.194;11.546;2022-10-12T11:25:07;33.47;;;19.75;;
29238;SDS011;16267;48.194;11.546;2022-10-12T11:27:45;38.10;;;19.60;;
29238;SDS011;16267;48.194;11.546;2022-10-12T11:30:12;38.22;;;20.33;;
29238;SDS011;16267;48.194;11.546;2022-10-12T11:32:45;31.35;;;18.38;;
29238;SDS011;16267;48.194;11.546;2022-10-12T11:35:37;30.95;;;19.15;;
29238;SDS011;16267;48.194;11.546;2022-10-12T11:38:11;34.67;;;18.30;;
29238;SDS011;16267;48.194;11.546;2022-10-12T11:41:07;32.78;;;18.38;;
29238;SDS011;16267;48.194;11.546;2022-10-12T11:43:59;28.20;;;16.52;;
29238;SDS011;16267;48.194;11.546;2022-10-12T11:46:35;38.47;;;18.53;;
29238;SDS011;16267;48.194;11.546;2022-10-12T11:52:15;30.83;;;18.30;;
29238;SDS011;16267;48.194;11.546;2022-10-12T11:54:51;29.73;;;17.90;;
29238;SDS011;16267;48.194;11.546;2022-10-12T11:57:43;31.00;;;17.90;;
29238;SDS011;16267;48.194;11.546;2022-10-12T12:02:54;27.90;;;16.58;;
29238;SDS011;16267;48.194;11.546;2022-10-12T12:11:25;26.77;;;17.05;;
29238;SDS011;16267;48.194;11.546;2022-10-12T12:17:03;26.63;;;16.45;;
29238;SDS011;16267;48.194;11.546;2022-10-12T12:19:52;26.02;;;16.42;;
29238;SDS011;16267;48.194;11.546;2022-10-12T12:25:43;24.48;;;15.32;;
29238;SDS011;16267;48.194;11.546;2022-10-12T12:28:16;29.65;;;15.73;;
29238;SDS011;16267;48.194;11.546;2022-10-12T12:30:55;29.15;;;15.63;;
29238;SDS011;16267;48.194;11.546;2022-10-12T12:33:26;28.10;;;15.23;;
29238;SDS011;16267;48.194;11.546;2022-10-12T12:36:02;23.98;;;15.38;;
29238;SDS011;16267;48.194;11.546;2022-10-12T12:38:34;27.25;;;15.65;;
29238;SDS011;16267;48.194;11.546;2022-10-12T12:46:14;26.20;;;14.55;;
29238;SDS011;16267;48.194;11.546;2022-10-12T12:51:06;25.95;;;15.68;;
29238;SDS011;16267;48.194;11.546;2022-10-12T12:53:48;30.65;;;15.57;;
29238;SDS011;16267;48.194;11.546;2022-10-12T13:01:59;22.17;;;13.90;;
29238;SDS011;16267;48.194;11.546;2022-10-12T13:07:29;24.25;;;14.38;;
29238;SDS011;16267;48.194;11.546;2022-10-12T13:12:55;23.25;;;15.23;;
29238;SDS011;16267;48.194;11.546;2022-10-12T13:19:09;25.25;;;14.95;;
29238;SDS011;16267;48.194;11.546;2022-10-12T13:21:42;23.20;;;13.20;;
29238;SDS011;16267;48.194;11.546;2022-10-12T13:24:21;31.00;;;14.35;;
29238;SDS011;16267;48.194;11.546;2022-10-12T13:30:18;26.25;;;13.25;;
29238;SDS011;16267;48.194;11.546;2022-10-12T13:36:11;21.88;;;13.48;;
29238;SDS011;16267;48.194;11.546;2022-10-12T13:38:45;22.13;;;13.75;;
29238;SDS011;16267;48.194;11.546;2022-10-12T13:41:17;23.42;;;14.80;;
29238;SDS011;16267;48.194;11.546;2022-10-12T13:49:15;23.83;;;14.35;;
29238;SDS011;16267;48.194;11.546;2022-10-12T13:51:52;23.85;;;14.43;;
29238;SDS011;16267;48.194;11.546;2022-10-12T13:54:24;23.38;;;15.63;;
29238;SDS011;16267;48.194;11.546;2022-10-12T13:57:04;30.45;;;15.38;;
29238;SDS011;16267;48.194;11.546;2022-10-12T14:00:07;28.27;;;15.52;;
29238;SDS011;16267;48.194;11.546;2022-10-12T14:02:40;24.85;;;14.63;;
29238;SDS011;16267;48.194;11.546;2022-10-12T14:05:23;31.03;;;14.33;;
29238;SDS011;16267;48.194;11.546;2022-10-12T14:07:52;30.52;;;17.73;;
29238;SDS011;16267;48.194;11.546;2022-10-12T14:10:25;25.27;;;14.27;;
29238;SDS011;16267;48.194;11.546;2022-10-12T14:12:56;27.75;;;14.40;;
29238;SDS011;16267;48.194;11.546;2022-10-12T14:15:24;24.55;;;13.32;;
29238;SDS011;16267;48.194;11.546;2022-10-12T14:17:58;27.13;;;16.30;;
29238;SDS011;16267;48.194;11.546;2022-10-12T14:20:31;33.05;;;14.93;;
29238;SDS011;16267;48.194;11.546;2022-10-12T14:23:03;20.40;;;13.65;;
29238;SDS011;16267;48.194;11.546;2022-10-12T14:25:41;20.70;;;13.77;;
29238;SDS011;16267;48.194;11.546;2022-10-12T14:28:30;27.67;;;14.88;;
29238;SDS011;16267;48.194;11.546;2022-10-12T14:31:01;30.30;;;14.88;;
29238;SDS011;16267;48.194;11.546;2022-10-12T14:33:27;25.77;;;14.55;;
29238;SDS011;16267;48.194;11.546;2022-10-12T14:36:12;27.35;;;14.52;;
29238;SDS011;16267;48.194;11.546;2022-10-12T14:38:51;25.63;;;15.15;;
29238;SDS011;16267;48.194;11.546;2022-10-12T14:46:34;31.42;;;15.80;;
29238;SDS011;16267;48.194;11.546;2022-10-12T14:49:01;30.92;;;17.05;;
29238;SDS011;16267;48.194;11.546;2022-10-12T14:51:27;34.50;;;16.27;;
29238;SDS011;16267;48.194;11.546;2022-10-12T14:53:57;29.90;;;16.85;;
29238;SDS011;16267;48.194;11.546;2022-10-12T14:56:28;30.60;;;16.83;;
29238;SDS011;16267;48.194;11.546;2022-10-12T14:58:54;30.73;;;18.52;;
29238;SDS011;16267;48.194;11.546;2022-10-12T15:01:20;32.90;;;19.55;;
29238;SDS011;16267;48.194;11.546;2022-10-12T15:03:47;34.70;;;22.05;;
29238;SDS011;16267;48.194;11.546;2022-10-12T15:06:13;37.78;;;22.33;;
29238;SDS011;16267;48.194;11.546;2022-10-12T15:08:40;42.03;;;22.13;;
29238;SDS011;16267;48.194;11.546;2022-10-12T15:11:11;35.35;;;22.10;;
29238;SDS011;16267;48.194;11.546;2022-10-12T15:13:38;34.55;;;21.80;;
29238;SDS011;16267;48.194;11.546;2022-10-12T15:16:26;37.47;;;22.33;;
29238;SDS011;16267;48.194;11.546;2022-10-12T15:18:52;38.35;;;21.65;;
29238;SDS011;16267;48.194;11.546;2022-10-12T15:21:18;34.80;;;21.48;;
29238;SDS011;16267;48.194;11.546;2022-10-12T15:23:45;39.78;;;22.55;;
29238;SDS011;16267;48.194;11.546;2022-10-12T15:26:12;40.33;;;22.23;;
29238;SDS011;16267;48.194;11.546;2022-10-12T15:28:40;40.83;;;23.05;;
29238;SDS011;16267;48.194;11.546;2022-10-12T15:31:14;42.28;;;23.35;;
29238;SDS011;16267;48.194;11.546;2022-10-12T15:33:40;40.45;;;22.38;;
29238;SDS011;16267;48.194;11.546;2022-10-12T15:36:07;41.50;;;23.55;;
29238;SDS011;16267;48.194;11.546;2022-10-12T15:38:33;44.80;;;26.63;;
29238;SDS011;16267;48.194;11.546;2022-10-12T15:40:59;56.25;;;33.15;;
29238;SDS011;16267;48.194;11.546;2022-10-12T15:43:26;49.78;;;26.95;;
29238;SDS011;16267;48.194;11.546;2022-10-12T15:45:52;46.55;;;25.48;;
29238;SDS011;16267;48.194;11.546;2022-10-12T15:48:20;44.25;;;23.98;;
29238;SDS011;16267;48.194;11.546;2022-10-12T15:50:47;54.75;;;33.40;;
29238;SDS011;16267;48.194;11.546;2022-10-12T15:53:18;47.72;;;27.83;;
29238;SDS011;16267;48.194;11.546;2022-10-12T15:55:52;39.42;;;25.02;;
29238;SDS011;16267;48.194;11.546;2022-10-12T15:58:20;40.80;;;21.58;;
29238;SDS011;16267;48.194;11.546;2022-10-12T16:00:46;42.45;;;27.33;;
29238;SDS011;16267;48.194;11.546;2022-10-12T16:03:16;42.85;;;26.35;;
29238;SDS011;16267;48.194;11.546;2022-10-12T16:05:45;40.63;;;22.63;;
29238;SDS011;16267;48.194;11.546;2022-10-12T16:08:10;35.17;;;20.42;;
29238;SDS011;16267;48.194;11.546;2022-10-12T16:10:37;55.35;;;36.28;;
29238;SDS011;16267;48.194;11.546;2022-10-12T16:13:06;122.57;;;75.05;;
29238;SDS011;16267;48.194;11.546;2022-10-12T16:15:35;62.47;;;37.15;;
29238;SDS011;16267;48.194;11.546;2022-10-12T16:18:01;59.15;;;41.35;;
29238;SDS011;16267;48.194;11.546;2022-10-12T16:20:29;38.08;;;23.52;;
29238;SDS011;16267;48.194;11.546;2022-10-12T16:22:57;41.85;;;20.80;;
29238;SDS011;16267;48.194;11.546;2022-10-12T16:25:25;36.10;;;18.65;;
29238;SDS011;16267;48.194;11.546;2022-10-12T16:27:52;34.42;;;19.23;;
29238;SDS011;16267;48.194;11.546;2022-10-12T16:30:20;36.65;;;19.17;;
29238;SDS011;16267;48.194;11.546;2022-10-12T16:32:47;31.33;;;17.65;;
29238;SDS011;16267;48.194;11.546;2022-10-12T16:35:14;31.67;;;17.67;;
29238;SDS011;16267;48.194;11.546;2022-10-12T16:37:40;40.72;;;18.27;;
29238;SDS011;16267;48.194;11.546;2022-10-12T16:40:05;37.10;;;19.40;;
29238;SDS011;16267;48.194;11.546;2022-10-12T16:42:32;33.92;;;17.85;;
29238;SDS011;16267;48.194;11.546;2022-10-12T16:44:58;31.45;;;18.98;;
29238;SDS011;16267;48.194;11.546;2022-10-12T16:47:24;38.53;;;19.98;;
29238;SDS011;16267;48.194;11.546;2022-10-12T16:49:51;33.90;;;18.13;;
29238;SDS011;16267;48.194;11.546;2022-10-12T16:52:18;31.65;;;18.48;;
29238;SDS011;16267;48.194;11.546;2022-10-12T16:54:48;35.97;;;17.55;;
29238;SDS011;16267;48.194;11.546;2022-10-12T16:57:20;28.00;;;16.75;;
29238;SDS011;16267;48.194;11.546;2022-10-12T16:59:47;28.20;;;17.63;;
29238;SDS011;16267;48.194;11.546;2022-10-12T17:02:14;34.47;;;17.60;;
29238;SDS011;16267;48.194;11.546;2022-10-12T17:04:41;33.53;;;18.30;;
29238;SDS011;16267;48.194;11.546;2022-10-12T17:07:07;29.63;;;18.45;;
29238;SDS011;16267;48.194;11.546;2022-10-12T17:09:33;34.42;;;19.20;;
29238;SDS011;16267;48.194;11.546;2022-10-12T17:11:59;36.55;;;18.85;;
29238;SDS011;16267;48.194;11.546;2022-10-12T17:14:25;30.20;;;18.23;;
29238;SDS011;16267;48.194;11.546;2022-10-12T17:16:53;32.15;;;17.70;;
29238;SDS011;16267;48.194;11.546;2022-10-12T17:21:50;35.28;;;17.52;;
29238;SDS011;16267;48.194;11.546;2022-10-12T17:24:18;30.35;;;17.38;;
29238;SDS011;16267;48.194;11.546;2022-10-12T17:26:45;35.17;;;18.13;;
29238;SDS011;16267;48.194;11.546;2022-10-12T17:29:12;30.92;;;17.98;;
29238;SDS011;16267;48.194;11.546;2022-10-12T17:31:41;28.30;;;17.80;;
29238;SDS011;16267;48.194;11.546;2022-10-12T17:34:27;38.83;;;18.25;;
29238;SDS011;16267;48.194;11.546;2022-10-12T17:36:58;35.33;;;18.27;;
29238;SDS011;16267;48.194;11.546;2022-10-12T17:39:27;35.03;;;19.33;;
29238;SDS011;16267;48.194;11.546;2022-10-12T17:41:55;38.20;;;19.88;;
29238;SDS011;16267;48.194;11.546;2022-10-12T17:44:21;34.25;;;18.20;;
29238;SDS011;16267;48.194;11.546;2022-10-12T17:46:47;33.92;;;19.60;;
29238;SDS011;16267;48.194;11.546;2022-10-12T17:49:14;37.67;;;21.52;;
29238;SDS011;16267;48.194;11.546;2022-10-12T17:51:42;33.83;;;20.13;;
29238;SDS011;16267;48.194;11.546;2022-10-12T17:54:12;40.03;;;20.48;;
29238;SDS011;16267;48.194;11.546;2022-10-12T17:56:42;33.33;;;17.83;;
29238;SDS011;16267;48.194;11.546;2022-10-12T17:59:09;32.70;;;18.08;;
29238;SDS011;16267;48.194;11.546;2022-10-12T18:01:38;30.95;;;17.83;;
29238;SDS011;16267;48.194;11.546;2022-10-12T18:04:05;31.55;;;18.55;;
29238;SDS011;16267;48.194;11.546;2022-10-12T18:06:31;34.38;;;16.92;;
29238;SDS011;16267;48.194;11.546;2022-10-12T18:08:59;36.95;;;18.25;;
29238;SDS011;16267;48.194;11.546;2022-10-12T18:11:28;31.92;;;17.92;;
29238;SDS011;16267;48.194;11.546;2022-10-12T18:13:55;31.33;;;17.65;;
29238;SDS011;16267;48.194;11.546;2022-10-12T18:16:25;32.60;;;17.48;;
29238;SDS011;16267;48.194;11.546;2022-10-12T18:18:54;26.33;;;17.20;;
29238;SDS011;16267;48.194;11.546;2022-10-12T18:21:23;30.10;;;17.33;;
29238;SDS011;16267;48.194;11.546;2022-10-12T18:23:51;32.55;;;17.90;;
29238;SDS011;16267;48.194;11.546;2022-10-12T18:26:18;34.38;;;19.20;;
29238;SDS011;16267;48.194;11.546;2022-10-12T18:28:49;31.58;;;17.95;;
29238;SDS011;16267;48.194;11.546;2022-10-12T18:31:17;32.90;;;16.63;;
29238;SDS011;16267;48.194;11.546;2022-10-12T18:33:49;37.00;;;17.73;;
29238;SDS011;16267;48.194;11.546;2022-10-12T18:36:16;29.15;;;17.27;;
29238;SDS011;16267;48.194;11.546;2022-10-12T18:38:44;29.08;;;17.80;;
29238;SDS011;16267;48.194;11.546;2022-10-12T18:41:11;32.38;;;17.88;;
29238;SDS011;16267;48.194;11.546;2022-10-12T18:43:40;33.65;;;20.83;;
29238;SDS011;16267;48.194;11.546;2022-10-12T18:46:06;39.22;;;19.92;;
29238;SDS011;16267;48.194;11.546;2022-10-12T18:48:34;33.50;;;18.83;;
29238;SDS011;16267;48.194;11.546;2022-10-12T18:51:05;32.75;;;18.15;;
29238;SDS011;16267;48.194;11.546;2022-10-12T18:53:45;31.73;;;17.27;;
29238;SDS011;16267;48.194;11.546;2022-10-12T18:56:11;32.25;;;16.90;;
29238;SDS011;16267;48.194;11.546;2022-10-12T18:58:37;32.72;;;17.40;;
29238;SDS011;16267;48.194;11.546;2022-10-12T19:01:07;32.03;;;18.80;;
29238;SDS011;16267;48.194;11.546;2022-10-12T19:03:39;36.15;;;17.50;;
29238;SDS011;16267;48.194;11.546;2022-10-12T19:06:10;28.05;;;17.52;;